createdAt,value
2022-10-30T00:01:05.802Z,7.33
2022-10-30T00:03:32.493Z,6.50
2022-10-30T00:05:59.462Z,6.53
2022-10-30T00:08:26.338Z,6.17
2022-10-30T00:10:53.446Z,6.80
2022-10-30T00:13:21.343Z,7.10
2022-10-30T00:15:53.814Z,6.03
2022-10-30T00:18:21.845Z,7.33
2022-10-30T00:20:49.011Z,6.47
2022-10-30T00:23:16.589Z,7.07
2022-10-30T00:25:43.300Z,7.00
2022-10-30T00:28:10.151Z,6.50
2022-10-30T00:30:37.575Z,6.27
2022-10-30T00:33:04.880Z,6.63
2022-10-30T00:35:32.228Z,6.90
2022-10-30T00:38:00.991Z,6.93
2022-10-30T00:40:28.448Z,6.43
2022-10-30T00:42:55.208Z,6.20
2022-10-30T00:45:22.059Z,7.53
2022-10-30T00:47:55.459Z,7.07
2022-10-30T00:50:30.708Z,6.47
2022-10-30T00:53:03.110Z,6.37
2022-10-30T00:55:50.320Z,7.23
2022-10-30T00:58:21.918Z,6.30
2022-10-30T01:00:52.841Z,7.03
2022-10-30T01:03:21.645Z,6.57
2022-10-30T01:05:53.444Z,6.83
2022-10-30T01:08:20.729Z,6.73
2022-10-30T01:10:48.484Z,6.37
2022-10-30T01:13:16.295Z,6.93
2022-10-30T01:15:58.976Z,6.17
2022-10-30T01:18:47.372Z,5.47
2022-10-30T01:21:42.886Z,6.43
2022-10-30T01:25:08.044Z,5.97
2022-10-30T01:27:58.700Z,6.73
2022-10-30T01:30:46.017Z,6.00
2022-10-30T01:33:27.938Z,5.80
2022-10-30T01:36:01.618Z,6.60
2022-10-30T01:38:47.972Z,6.17
2022-10-30T01:41:14.689Z,5.70
2022-10-30T01:43:44.338Z,6.30
2022-10-30T01:46:34.334Z,6.40
2022-10-30T01:49:20.315Z,6.60
2022-10-30T01:52:31.333Z,6.20
2022-10-30T01:55:16.157Z,7.10
2022-10-30T01:58:03.593Z,6.53
2022-10-30T02:00:30.384Z,6.33
2022-10-30T02:02:57.977Z,6.47
2022-10-30T02:05:39.758Z,6.07
2022-10-30T02:08:07.423Z,5.97
2022-10-30T02:10:36.998Z,6.00
2022-10-30T02:13:03.951Z,6.10
2022-10-30T02:15:31.958Z,5.60
2022-10-30T02:17:59.234Z,5.37
2022-10-30T02:20:26.660Z,5.50
2022-10-30T02:22:57.961Z,5.90
2022-10-30T02:25:26.092Z,5.83
2022-10-30T02:27:52.985Z,5.77
2022-10-30T02:30:19.769Z,5.43
2022-10-30T02:32:46.444Z,5.93
2022-10-30T02:35:13.320Z,5.40
2022-10-30T02:37:40.318Z,6.00
2022-10-30T02:40:10.443Z,5.07
2022-10-30T02:42:37.461Z,5.70
2022-10-30T02:45:04.608Z,5.57
2022-10-30T02:47:31.271Z,5.27
2022-10-30T02:49:58.129Z,4.93
2022-10-30T02:52:25.106Z,5.67
2022-10-30T02:54:51.819Z,4.80
2022-10-30T02:57:18.618Z,5.80
2022-10-30T02:59:45.285Z,5.20
2022-10-30T03:02:12.053Z,5.60
2022-10-30T03:04:38.830Z,5.23
2022-10-30T03:07:05.621Z,5.30
2022-10-30T03:09:32.390Z,5.50
2022-10-30T03:11:59.154Z,4.97
2022-10-30T03:14:26.107Z,5.30
2022-10-30T03:16:53.072Z,5.23
2022-10-30T03:19:20.531Z,5.27
2022-10-30T03:21:47.394Z,5.53
2022-10-30T03:24:14.357Z,4.90
2022-10-30T03:26:41.187Z,5.37
2022-10-30T03:29:07.905Z,5.23
2022-10-30T03:31:34.693Z,5.43
2022-10-30T03:34:01.535Z,4.53
2022-10-30T03:36:28.381Z,5.80
2022-10-30T03:38:55.180Z,4.90
2022-10-30T03:41:21.985Z,4.87
2022-10-30T03:43:48.905Z,5.17
2022-10-30T03:46:15.706Z,5.40
2022-10-30T03:48:42.425Z,4.27
2022-10-30T03:51:09.207Z,4.47
2022-10-30T03:53:35.931Z,4.67
2022-10-30T03:56:05.125Z,5.27
2022-10-30T03:58:31.819Z,5.03
2022-10-30T04:01:05.721Z,5.03
2022-10-30T04:03:32.821Z,4.33
2022-10-30T04:06:00.104Z,4.40
2022-10-30T04:08:27.007Z,4.87
2022-10-30T04:10:53.857Z,4.47
2022-10-30T04:13:20.961Z,4.43
2022-10-30T04:15:56.410Z,4.70
2022-10-30T04:18:25.176Z,5.57
2022-10-30T04:20:52.001Z,5.80
2022-10-30T04:23:20.281Z,5.00
2022-10-30T04:25:47.734Z,5.43
2022-10-30T04:28:15.110Z,5.00
2022-10-30T04:30:41.850Z,4.80
2022-10-30T04:33:12.498Z,4.77
2022-10-30T04:35:40.158Z,4.60
2022-10-30T04:38:12.598Z,5.30
2022-10-30T04:40:41.413Z,4.93
2022-10-30T04:43:09.062Z,4.47
2022-10-30T04:45:36.534Z,4.67
2022-10-30T04:48:16.040Z,4.97
2022-10-30T04:50:43.732Z,5.03
2022-10-30T04:53:14.805Z,4.30
2022-10-30T04:55:42.207Z,4.50
2022-10-30T04:58:09.377Z,5.07
2022-10-30T05:00:36.398Z,5.63
2022-10-30T05:03:03.679Z,9.00
2022-10-30T05:05:31.339Z,5.47
2022-10-30T05:07:58.884Z,5.23
2022-10-30T05:10:25.851Z,4.73
2022-10-30T05:12:54.460Z,5.23
2022-10-30T05:15:21.297Z,4.80
2022-10-30T05:17:51.791Z,4.83
2022-10-30T05:20:19.180Z,5.27
2022-10-30T05:22:46.341Z,5.27
2022-10-30T05:25:13.200Z,5.27
2022-10-30T05:27:39.920Z,5.30
2022-10-30T05:30:07.271Z,4.50
2022-10-30T05:32:34.068Z,4.90
2022-10-30T05:35:00.815Z,5.40
2022-10-30T05:37:27.785Z,5.10
2022-10-30T05:39:54.533Z,5.53
2022-10-30T05:42:21.949Z,5.10
2022-10-30T05:45:01.004Z,5.10
2022-10-30T05:47:28.508Z,4.53
2022-10-30T05:49:55.287Z,6.10
2022-10-30T05:52:22.037Z,4.50
2022-10-30T05:54:48.943Z,5.00
2022-10-30T05:57:15.693Z,4.43
2022-10-30T05:59:42.464Z,5.07
2022-10-30T06:02:09.214Z,4.23
2022-10-30T06:04:36.125Z,4.73
2022-10-30T06:07:02.879Z,4.47
2022-10-30T06:09:29.629Z,4.53
2022-10-30T06:11:56.426Z,5.33
2022-10-30T06:14:23.109Z,4.67
2022-10-30T06:16:50.116Z,4.90
2022-10-30T06:19:18.818Z,4.40
2022-10-30T06:21:46.315Z,4.50
2022-10-30T06:24:13.969Z,4.50
2022-10-30T06:26:41.071Z,4.43
2022-10-30T06:29:08.197Z,4.60
2022-10-30T06:31:34.931Z,4.80
2022-10-30T06:34:02.059Z,4.60
2022-10-30T06:36:28.909Z,4.30
2022-10-30T06:38:55.664Z,4.50
2022-10-30T06:41:29.049Z,4.53
2022-10-30T06:43:57.386Z,4.30
2022-10-30T06:46:27.072Z,5.03
2022-10-30T06:48:57.774Z,4.90
2022-10-30T06:51:24.777Z,4.50
2022-10-30T06:53:51.461Z,4.87
2022-10-30T06:56:18.140Z,4.67
2022-10-30T06:58:45.010Z,5.00
2022-10-30T07:01:11.825Z,5.47
2022-10-30T07:03:38.684Z,4.47
2022-10-30T07:06:05.780Z,4.10
2022-10-30T07:08:32.721Z,4.63
2022-10-30T07:10:59.558Z,4.53
2022-10-30T07:13:26.322Z,6.93
2022-10-30T07:15:53.141Z,7.50
2022-10-30T07:18:20.010Z,7.07
2022-10-30T07:20:46.866Z,6.57
2022-10-30T07:23:13.721Z,6.50
2022-10-30T07:25:40.539Z,7.37
2022-10-30T07:28:07.288Z,7.10
2022-10-30T07:30:34.107Z,6.57
2022-10-30T07:33:03.171Z,6.70
2022-10-30T07:35:31.404Z,7.27
2022-10-30T07:38:09.801Z,8.47
2022-10-30T07:40:36.543Z,7.00
2022-10-30T07:43:04.361Z,7.13
2022-10-30T07:45:32.269Z,6.73
2022-10-30T07:47:59.237Z,6.20
2022-10-30T07:50:26.238Z,7.50
2022-10-30T07:52:53.953Z,7.63
2022-10-30T07:55:20.860Z,6.63
2022-10-30T07:57:47.625Z,6.60
2022-10-30T08:00:15.347Z,5.97
2022-10-30T08:02:42.503Z,5.20
2022-10-30T08:05:16.291Z,4.80
2022-10-30T08:07:45.953Z,4.80
2022-10-30T08:10:12.918Z,4.40
2022-10-30T08:12:41.857Z,5.33
2022-10-30T08:15:09.044Z,5.17
2022-10-30T08:17:45.435Z,5.60
2022-10-30T08:20:14.408Z,5.40
2022-10-30T08:22:52.492Z,5.13
2022-10-30T08:25:21.967Z,4.90
2022-10-30T08:27:52.796Z,4.20
2022-10-30T08:30:20.125Z,5.70
2022-10-30T08:32:47.005Z,4.83
2022-10-30T08:35:19.474Z,4.83
2022-10-30T08:37:46.640Z,4.30
2022-10-30T08:40:13.418Z,6.60
2022-10-30T08:42:40.172Z,6.93
2022-10-30T08:45:07.434Z,6.00
2022-10-30T08:47:34.524Z,5.97
2022-10-30T08:50:01.332Z,6.10
2022-10-30T08:52:28.083Z,5.70
2022-10-30T08:54:54.892Z,5.80
2022-10-30T08:57:21.594Z,5.10
2022-10-30T08:59:48.361Z,5.10
2022-10-30T09:02:15.211Z,5.57
2022-10-30T09:04:42.027Z,6.00
2022-10-30T09:07:11.955Z,5.93
2022-10-30T09:09:39.846Z,5.80
2022-10-30T09:12:06.762Z,5.93
2022-10-30T09:14:33.633Z,5.57
2022-10-30T09:17:00.359Z,5.13
2022-10-30T09:19:28.598Z,5.93
2022-10-30T09:21:55.441Z,5.20
2022-10-30T09:24:22.183Z,5.37
2022-10-30T09:26:48.905Z,5.50
2022-10-30T09:29:15.830Z,5.80
2022-10-30T09:31:42.569Z,5.43
2022-10-30T09:34:09.624Z,5.17
2022-10-30T09:36:36.456Z,5.27
2022-10-30T09:39:03.314Z,6.07
2022-10-30T09:41:36.404Z,5.53
2022-10-30T09:44:24.827Z,5.60
2022-10-30T09:47:23.464Z,5.27
2022-10-30T09:50:23.050Z,4.60
2022-10-30T09:53:30.551Z,5.37
2022-10-30T09:56:17.968Z,4.50
2022-10-30T09:58:54.007Z,5.13
2022-10-30T10:01:28.952Z,5.10
2022-10-30T10:04:28.243Z,5.43
2022-10-30T10:07:07.194Z,4.70
2022-10-30T10:09:35.590Z,4.97
2022-10-30T10:12:30.416Z,4.67
2022-10-30T10:15:00.883Z,4.67
2022-10-30T10:17:36.028Z,4.13
2022-10-30T10:20:05.757Z,4.83
2022-10-30T10:22:50.420Z,5.30
2022-10-30T10:25:20.339Z,4.50
2022-10-30T10:28:14.387Z,4.83
2022-10-30T10:31:25.136Z,3.87
2022-10-30T10:34:17.843Z,5.03
2022-10-30T10:37:16.713Z,4.33
2022-10-30T10:39:49.310Z,3.90
2022-10-30T10:42:21.750Z,4.30
2022-10-30T10:45:19.823Z,4.17
2022-10-30T10:48:00.645Z,4.53
2022-10-30T10:50:33.727Z,3.93
2022-10-30T10:53:04.143Z,4.60
2022-10-30T10:55:39.175Z,4.00
2022-10-30T10:58:36.569Z,3.70
2022-10-30T11:01:06.437Z,3.90
2022-10-30T11:03:54.838Z,3.93
2022-10-30T11:06:28.517Z,4.00
2022-10-30T11:09:16.632Z,4.30
2022-10-30T11:11:44.563Z,3.50
2022-10-30T11:14:18.580Z,3.43
2022-10-30T11:16:51.363Z,4.50
2022-10-30T11:19:18.315Z,4.33
2022-10-30T11:21:55.357Z,4.30
2022-10-30T11:24:33.580Z,3.73
2022-10-30T11:27:25.654Z,4.03
2022-10-30T11:30:01.259Z,3.80
2022-10-30T11:32:30.649Z,3.70
2022-10-30T11:35:10.093Z,3.43
2022-10-30T11:37:40.266Z,4.10
2022-10-30T11:40:12.737Z,3.30
2022-10-30T11:42:47.245Z,3.13
2022-10-30T11:45:24.152Z,3.87
2022-10-30T11:47:52.507Z,3.40
2022-10-30T11:50:22.882Z,3.50
2022-10-30T11:53:03.141Z,3.10
2022-10-30T11:55:33.604Z,3.87
2022-10-30T11:58:00.692Z,2.97
2022-10-30T12:00:30.903Z,3.70
2022-10-30T12:03:03.523Z,3.23
2022-10-30T12:05:32.965Z,2.90
2022-10-30T12:08:08.547Z,3.80
2022-10-30T12:10:58.302Z,2.90
2022-10-30T12:13:26.503Z,3.10
2022-10-30T12:16:16.546Z,3.30
2022-10-30T12:18:55.016Z,2.90
2022-10-30T12:21:21.900Z,2.97
2022-10-30T12:23:57.145Z,3.13
2022-10-30T12:26:25.337Z,3.23
2022-10-30T12:29:01.552Z,3.17
2022-10-30T12:31:39.199Z,3.07
2022-10-30T12:34:41.867Z,2.70
2022-10-30T12:37:40.767Z,3.17
2022-10-30T12:40:16.267Z,2.43
2022-10-30T12:42:54.526Z,2.80
2022-10-30T12:45:27.649Z,2.73
2022-10-30T12:48:32.133Z,2.53
2022-10-30T12:51:29.988Z,2.77
2022-10-30T12:54:25.810Z,3.17
2022-10-30T12:57:05.829Z,2.47
2022-10-30T12:59:40.275Z,2.50
2022-10-30T13:02:33.595Z,2.87
2022-10-30T13:05:05.806Z,2.87
2022-10-30T13:07:47.526Z,2.73
2022-10-30T13:10:52.488Z,2.43
2022-10-30T13:13:26.949Z,2.97
2022-10-30T13:15:56.640Z,2.70
2022-10-30T13:18:27.449Z,3.03
2022-10-30T13:21:25.157Z,3.10
2022-10-30T13:24:07.052Z,3.93
2022-10-30T13:27:05.027Z,3.90
2022-10-30T13:29:49.663Z,3.90
2022-10-30T13:32:29.775Z,3.80
2022-10-30T13:35:21.211Z,4.37
2022-10-30T13:38:06.399Z,4.70
2022-10-30T13:40:39.910Z,4.23
2022-10-30T13:43:41.823Z,4.10
2022-10-30T13:46:31.911Z,3.70
2022-10-30T13:49:22.210Z,3.77
2022-10-30T13:52:02.004Z,3.57
2022-10-30T13:54:37.603Z,4.33
2022-10-30T13:57:13.206Z,3.97
2022-10-30T13:59:48.405Z,3.67
2022-10-30T14:02:33.011Z,4.13
2022-10-30T14:05:12.609Z,3.60
2022-10-30T14:07:59.537Z,4.37
2022-10-30T14:10:37.899Z,3.53
2022-10-30T14:13:07.795Z,3.37
2022-10-30T14:15:42.540Z,3.30
2022-10-30T14:18:11.960Z,3.90
2022-10-30T14:20:50.663Z,3.93
2022-10-30T14:23:20.455Z,3.20
2022-10-30T14:26:05.891Z,3.47
2022-10-30T14:28:41.422Z,3.37
2022-10-30T14:31:12.612Z,3.20
2022-10-30T14:33:50.030Z,3.17
2022-10-30T14:36:22.054Z,3.90
2022-10-30T14:39:08.999Z,2.77
2022-10-30T14:41:38.441Z,3.43
2022-10-30T14:44:17.551Z,3.47
2022-10-30T14:46:44.364Z,3.77
2022-10-30T14:49:45.361Z,3.90
2022-10-30T14:52:34.066Z,3.27
2022-10-30T14:55:25.140Z,3.20
2022-10-30T14:58:01.151Z,3.33
2022-10-30T15:00:35.143Z,3.20
2022-10-30T15:03:11.568Z,3.30
2022-10-30T15:05:56.047Z,3.33
2022-10-30T15:08:34.535Z,3.33
2022-10-30T15:11:20.174Z,2.93
2022-10-30T15:13:53.453Z,3.77
2022-10-30T15:16:22.630Z,3.40
2022-10-30T15:19:05.438Z,3.27
2022-10-30T15:21:41.410Z,3.50
2022-10-30T15:24:20.204Z,3.40
2022-10-30T15:26:53.155Z,3.27
2022-10-30T15:29:32.314Z,3.90
2022-10-30T15:32:04.949Z,3.63
2022-10-30T15:34:33.575Z,3.13
2022-10-30T15:37:10.558Z,4.63
2022-10-30T15:39:37.249Z,3.83
2022-10-30T15:42:05.050Z,3.80
2022-10-30T15:44:39.398Z,3.23
2022-10-30T15:47:14.681Z,3.70
2022-10-30T15:49:57.265Z,4.20
2022-10-30T15:52:30.001Z,5.17
2022-10-30T15:55:02.842Z,4.77
2022-10-30T15:58:00.996Z,4.60
2022-10-30T16:00:36.286Z,4.80
2022-10-30T16:03:16.524Z,4.37
2022-10-30T16:05:43.366Z,4.53
2022-10-30T16:08:22.272Z,5.37
2022-10-30T16:10:54.004Z,5.40
2022-10-30T16:13:27.969Z,5.57
2022-10-30T16:15:54.896Z,4.97
2022-10-30T16:18:28.233Z,5.97
2022-10-30T16:21:01.085Z,5.77
2022-10-30T16:23:29.305Z,6.07
2022-10-30T16:25:58.197Z,5.80
2022-10-30T16:28:37.614Z,5.30
2022-10-30T16:31:14.301Z,5.20
2022-10-30T16:33:42.877Z,6.10
2022-10-30T16:36:14.945Z,5.47
2022-10-30T16:38:42.305Z,5.33
2022-10-30T16:41:13.597Z,5.37
2022-10-30T16:43:42.149Z,5.73
2022-10-30T16:46:14.762Z,5.20
2022-10-30T16:48:46.774Z,5.90
2022-10-30T16:51:18.362Z,5.23
2022-10-30T16:53:50.626Z,5.60
2022-10-30T16:56:27.527Z,6.27
2022-10-30T16:58:58.881Z,7.20
2022-10-30T17:01:28.986Z,6.83
2022-10-30T17:03:56.719Z,6.57
2022-10-30T17:06:28.607Z,7.20
2022-10-30T17:08:59.563Z,8.70
2022-10-30T17:11:42.106Z,7.53
2022-10-30T17:14:20.572Z,7.40
2022-10-30T17:17:00.163Z,7.00
2022-10-30T17:19:33.140Z,6.77
2022-10-30T17:22:03.984Z,8.37
2022-10-30T17:24:33.237Z,9.00
2022-10-30T17:27:03.217Z,8.73
2022-10-30T17:29:41.825Z,8.87
2022-10-30T17:32:21.374Z,7.47
2022-10-30T17:34:57.776Z,7.80
2022-10-30T17:37:27.139Z,6.57
2022-10-30T17:39:53.899Z,6.97
2022-10-30T17:42:20.670Z,6.67
2022-10-30T17:44:49.926Z,5.53
2022-10-30T17:47:20.318Z,6.03
2022-10-30T17:49:49.390Z,6.43
2022-10-30T17:52:19.547Z,9.00
2022-10-30T17:54:46.298Z,6.90
2022-10-30T17:57:14.321Z,7.30
2022-10-30T17:59:41.777Z,5.83
2022-10-30T18:02:17.046Z,6.53
2022-10-30T18:04:44.693Z,6.20
2022-10-30T18:07:12.938Z,5.57
2022-10-30T18:09:40.102Z,6.00
2022-10-30T18:12:10.669Z,5.97
2022-10-30T18:14:37.382Z,8.57
2022-10-30T18:17:04.286Z,6.73
2022-10-30T18:19:30.996Z,6.27
2022-10-30T18:21:57.779Z,5.60
2022-10-30T18:24:24.433Z,5.07
2022-10-30T18:26:51.384Z,4.37
2022-10-30T18:29:18.124Z,4.13
2022-10-30T18:31:44.796Z,4.80
2022-10-30T18:34:21.415Z,4.93
2022-10-30T18:36:49.199Z,4.50
2022-10-30T18:39:15.975Z,4.60
2022-10-30T18:41:47.022Z,4.20
2022-10-30T18:44:15.225Z,4.10
2022-10-30T18:46:42.128Z,4.30
2022-10-30T18:49:08.797Z,4.00
2022-10-30T18:51:35.575Z,4.70
2022-10-30T18:54:02.743Z,4.73
2022-10-30T18:56:32.616Z,4.03
2022-10-30T18:59:02.388Z,4.83
2022-10-30T19:01:32.794Z,5.60
2022-10-30T19:04:01.135Z,4.73
2022-10-30T19:06:28.249Z,4.60
2022-10-30T19:08:55.009Z,5.30
2022-10-30T19:11:24.977Z,5.10
2022-10-30T19:13:53.728Z,6.83
2022-10-30T19:16:24.462Z,6.93
2022-10-30T19:18:51.270Z,6.97
2022-10-30T19:21:20.547Z,8.97
2022-10-30T19:23:48.064Z,9.53
2022-10-30T19:26:16.212Z,8.80
2022-10-30T19:28:43.619Z,8.00
2022-10-30T19:31:14.655Z,7.47
2022-10-30T19:33:41.648Z,7.43
2022-10-30T19:36:30.493Z,7.80
2022-10-30T19:38:57.811Z,6.30
2022-10-30T19:41:24.993Z,5.33
2022-10-30T19:43:52.715Z,5.57
2022-10-30T19:46:20.223Z,5.00
2022-10-30T19:48:57.345Z,6.63
2022-10-30T19:51:25.356Z,6.07
2022-10-30T19:53:53.894Z,5.67
2022-10-30T19:56:21.394Z,5.87
2022-10-30T19:58:48.544Z,7.00
2022-10-30T20:01:15.628Z,4.83
2022-10-30T20:03:42.682Z,6.00
2022-10-30T20:06:12.186Z,6.57
2022-10-30T20:08:39.110Z,5.97
2022-10-30T20:11:06.005Z,5.80
2022-10-30T20:13:33.512Z,5.67
2022-10-30T20:16:00.864Z,5.30
2022-10-30T20:18:30.625Z,4.77
2022-10-30T20:20:59.684Z,5.37
2022-10-30T20:23:26.667Z,5.90
2022-10-30T20:25:57.478Z,6.13
2022-10-30T20:28:32.104Z,5.93
2022-10-30T20:30:59.386Z,5.60
2022-10-30T20:33:26.880Z,6.03
2022-10-30T20:35:54.878Z,5.60
2022-10-30T20:38:31.474Z,5.47
2022-10-30T20:40:59.388Z,4.60
2022-10-30T20:43:34.638Z,4.40
2022-10-30T20:46:02.256Z,5.50
2022-10-30T20:48:29.313Z,9.37
2022-10-30T20:50:57.660Z,6.60
2022-10-30T20:53:24.515Z,6.97
2022-10-30T20:55:51.554Z,6.13
2022-10-30T20:58:18.833Z,6.73
2022-10-30T21:00:46.054Z,6.20
2022-10-30T21:03:15.640Z,5.77
2022-10-30T21:05:45.672Z,5.43
2022-10-30T21:08:14.504Z,5.27
2022-10-30T21:10:41.974Z,5.43
2022-10-30T21:13:09.778Z,6.23
2022-10-30T21:15:42.669Z,5.97
2022-10-30T21:18:11.203Z,5.77
2022-10-30T21:20:38.441Z,5.57
2022-10-30T21:23:06.085Z,5.93
2022-10-30T21:25:33.201Z,6.10
2022-10-30T21:28:01.045Z,6.17
2022-10-30T21:30:28.696Z,6.43
2022-10-30T21:32:55.390Z,6.37
2022-10-30T21:35:22.269Z,6.97
2022-10-30T21:37:49.235Z,6.00
2022-10-30T21:40:16.051Z,5.30
2022-10-30T21:42:42.783Z,5.30
2022-10-30T21:45:10.059Z,5.87
2022-10-30T21:47:36.874Z,5.90
2022-10-30T21:50:07.868Z,5.53
2022-10-30T21:52:37.925Z,5.97
2022-10-30T21:55:05.007Z,5.50
2022-10-30T21:57:31.892Z,5.40
2022-10-30T22:00:01.497Z,5.73
2022-10-30T22:02:32.804Z,5.87
2022-10-30T22:04:59.613Z,5.63
2022-10-30T22:07:26.337Z,5.57
2022-10-30T22:09:53.670Z,5.60
2022-10-30T22:12:20.423Z,5.70
2022-10-30T22:14:47.059Z,5.47
2022-10-30T22:17:13.768Z,5.47
2022-10-30T22:19:40.540Z,6.07
2022-10-30T22:22:07.253Z,5.80
2022-10-30T22:24:34.010Z,5.47
2022-10-30T22:27:01.002Z,6.10
2022-10-30T22:29:27.741Z,5.83
2022-10-30T22:31:54.537Z,5.90
2022-10-30T22:34:21.272Z,5.70
2022-10-30T22:36:48.114Z,6.13
2022-10-30T22:39:14.890Z,5.80
2022-10-30T22:41:42.226Z,5.63
2022-10-30T22:44:12.942Z,5.63
2022-10-30T22:46:39.663Z,6.03
2022-10-30T22:49:07.103Z,5.87
2022-10-30T22:51:37.245Z,5.63
2022-10-30T22:54:06.000Z,5.53
2022-10-30T22:56:34.778Z,6.00
2022-10-30T22:59:06.920Z,5.90
2022-10-30T23:01:35.595Z,5.97
2022-10-30T23:04:04.053Z,5.93
2022-10-30T23:06:32.728Z,5.43
2022-10-30T23:09:01.330Z,5.03
2022-10-30T23:11:29.218Z,5.47
2022-10-30T23:13:56.926Z,5.73
2022-10-30T23:16:25.158Z,6.10
2022-10-30T23:18:54.743Z,5.63
2022-10-30T23:21:24.031Z,5.37
2022-10-30T23:23:51.221Z,5.53
2022-10-30T23:26:21.118Z,5.10
2022-10-30T23:28:49.390Z,5.27
2022-10-30T23:31:34.793Z,5.27
2022-10-30T23:34:04.076Z,5.20
2022-10-30T23:36:31.011Z,5.73
2022-10-30T23:39:00.318Z,5.07
2022-10-30T23:41:29.564Z,5.33
2022-10-30T23:43:58.300Z,5.07
2022-10-30T23:46:25.455Z,5.13
2022-10-30T23:48:52.192Z,4.90
2022-10-30T23:51:18.964Z,5.20
2022-10-30T23:53:45.715Z,5.23
2022-10-30T23:56:12.606Z,5.03
2022-10-30T23:58:42.563Z,5.07
